createdAt,value
2018-12-15T09:51:15.656Z,1020.91
2018-12-15T09:52:16.377Z,1020.89
2018-12-15T09:53:18.063Z,1020.88
2018-12-15T09:54:18.716Z,1020.88
2018-12-15T09:55:19.386Z,1020.93
2018-12-15T09:56:27.732Z,1020.93
2018-12-15T09:57:28.362Z,1020.93
2018-12-15T09:58:29.058Z,1020.92
2018-12-15T09:59:30.019Z,1020.92
2018-12-15T10:00:33.268Z,1020.96
2018-12-15T10:01:33.918Z,1020.93
2018-12-15T10:02:36.677Z,1020.88
2018-12-15T10:03:37.353Z,1020.88
2018-12-15T10:04:40.112Z,1020.86
2018-12-15T10:05:40.762Z,1020.86
2018-12-15T10:06:42.544Z,1020.86
2018-12-15T10:07:43.172Z,1020.84
2018-12-15T10:08:51.757Z,1020.85
2018-12-15T10:09:52.460Z,1020.85
2018-12-15T10:11:18.712Z,1020.80
2018-12-15T10:12:19.361Z,1020.79
2018-12-15T10:13:20.070Z,1020.80
2018-12-15T10:14:20.650Z,1020.80
2018-12-15T10:15:45.666Z,1020.81
2018-12-15T10:16:46.326Z,1020.78
2018-12-15T10:18:59.321Z,1020.77
2018-12-15T10:20:28.702Z,1020.77
2018-12-15T10:21:29.368Z,1020.73
2018-12-15T10:22:44.725Z,1020.74
2018-12-15T10:23:45.181Z,1020.69
2018-12-15T10:25:01.724Z,1020.70
2018-12-15T10:26:02.365Z,1020.68
2018-12-15T10:27:03.043Z,1020.66
2018-12-15T10:28:10.742Z,1020.60
2018-12-15T10:29:11.379Z,1020.59
2018-12-15T10:30:13.453Z,1020.63
2018-12-15T10:31:13.755Z,1020.57
2018-12-15T10:32:22.236Z,1020.55
2018-12-15T10:33:22.881Z,1020.55
2018-12-15T10:34:25.642Z,1020.51
2018-12-15T10:35:26.298Z,1020.51
2018-12-15T10:36:28.002Z,1020.50
2018-12-15T10:37:28.664Z,1020.51
2018-12-15T10:38:38.316Z,1020.49
2018-12-15T10:39:38.893Z,1020.49
2018-12-15T10:40:41.962Z,1020.46
2018-12-15T10:41:42.589Z,1020.44
2018-12-15T10:42:43.523Z,1020.41
2018-12-15T10:43:44.149Z,1020.40
2018-12-15T10:45:01.840Z,1020.37
2018-12-15T10:46:02.477Z,1020.37
2018-12-15T10:47:05.282Z,1020.33
2018-12-15T10:48:05.944Z,1020.35
2018-12-15T10:49:14.178Z,1020.36
2018-12-15T10:50:14.795Z,1020.28
2018-12-15T10:51:37.549Z,1020.29
2018-12-15T10:52:38.209Z,1020.26
2018-12-15T10:53:40.105Z,1020.26
2018-12-15T10:54:40.536Z,1020.24
2018-12-15T11:05:52.256Z,1020.16
2018-12-15T11:06:52.978Z,1020.13
2018-12-15T11:07:53.607Z,1020.20
2018-12-15T11:08:54.276Z,1020.10
2018-12-15T11:09:54.898Z,1020.12
2018-12-15T11:10:55.660Z,1020.10
2018-12-15T11:11:56.305Z,1020.09
2018-12-15T11:12:56.942Z,1020.09
2018-12-15T11:13:57.633Z,1020.11
2018-12-15T11:14:58.246Z,1020.07
2018-12-15T11:15:58.903Z,1020.06
2018-12-15T11:16:59.544Z,1020.10
2018-12-15T11:18:00.194Z,1020.07
2018-12-15T11:19:00.857Z,1020.05
2018-12-15T11:20:01.521Z,1020.04
2018-12-15T11:21:02.155Z,1020.08
2018-12-15T11:22:02.797Z,1020.03
2018-12-15T11:24:22.015Z,1020.00
2018-12-15T11:25:31.535Z,1019.98
2018-12-15T11:26:32.191Z,1019.93
2018-12-15T11:27:39.426Z,1019.95
2018-12-15T11:28:40.089Z,1019.96
2018-12-15T11:29:40.979Z,1019.89
2018-12-15T11:30:41.632Z,1019.92
2018-12-15T11:31:42.285Z,1019.93
2018-12-15T11:32:42.940Z,1019.86
2018-12-15T11:33:43.582Z,1019.90
2018-12-15T11:34:44.236Z,1019.88
2018-12-15T11:35:44.888Z,1019.87
2018-12-15T11:36:45.530Z,1019.85
2018-12-15T11:37:46.254Z,1019.83
2018-12-15T11:38:46.921Z,1019.85
2018-12-15T11:39:47.557Z,1019.87
2018-12-15T11:40:48.582Z,1019.83
2018-12-15T11:41:49.221Z,1019.75
2018-12-15T11:42:49.973Z,1019.73
2018-12-15T11:43:50.971Z,1019.77
2018-12-15T11:44:51.622Z,1019.67
2018-12-15T11:45:52.255Z,1019.71
2018-12-15T11:46:52.979Z,1019.72
2018-12-15T11:47:53.633Z,1019.69
2018-12-15T11:48:54.291Z,1019.66
2018-12-15T11:49:54.950Z,1019.66
2018-12-15T11:50:55.622Z,1019.65
2018-12-15T11:51:58.374Z,1019.64
2018-12-15T11:52:58.994Z,1019.61
2018-12-15T11:53:59.655Z,1019.62
2018-12-15T11:55:00.414Z,1019.58
2018-12-15T11:56:01.058Z,1019.56
2018-12-15T11:57:01.751Z,1019.55
2018-12-15T11:58:02.410Z,1019.52
2018-12-15T11:59:05.249Z,1019.51
2018-12-15T12:00:05.867Z,1019.48
2018-12-15T12:01:13.530Z,1019.48
2018-12-15T12:02:14.208Z,1019.50
2018-12-15T12:03:14.987Z,1019.49
2018-12-15T12:04:15.621Z,1019.45
2018-12-15T12:05:16.273Z,1019.44
2018-12-15T12:06:16.918Z,1019.46
2018-12-15T12:07:17.580Z,1019.48
2018-12-15T12:08:18.392Z,1019.45
2018-12-15T12:09:19.032Z,1019.41
2018-12-15T12:10:19.849Z,1019.46
2018-12-15T12:11:20.491Z,1019.37
2018-12-15T12:12:21.280Z,1019.38
2018-12-15T12:13:21.965Z,1019.41
2018-12-15T12:14:24.791Z,1019.41
2018-12-15T12:15:25.432Z,1019.39
2018-12-15T12:16:26.087Z,1019.36
2018-12-15T12:17:26.800Z,1019.33
2018-12-15T12:18:27.373Z,1019.28
2018-12-15T12:19:28.002Z,1019.17
2018-12-15T12:20:28.810Z,1019.15
2018-12-15T12:21:29.459Z,1019.19
2018-12-15T12:22:30.253Z,1019.11
2018-12-15T12:23:31.019Z,1019.16
2018-12-15T12:24:32.760Z,1019.07
2018-12-15T12:25:33.376Z,1019.12
2018-12-15T12:26:34.031Z,1019.11
2018-12-15T12:27:35.814Z,1019.09
2018-12-15T12:28:36.482Z,1019.14
2018-12-15T12:29:37.278Z,1019.16
2018-12-15T12:30:37.999Z,1019.12
2018-12-15T12:31:39.768Z,1019.11
2018-12-15T12:32:40.386Z,1019.11
2018-12-15T12:33:42.545Z,1019.11
2018-12-15T12:34:42.855Z,1019.15
2018-12-15T12:35:43.517Z,1019.16
2018-12-15T12:36:44.290Z,1019.08
2018-12-15T12:37:44.958Z,1019.05
2018-12-15T12:38:45.632Z,1018.99
2018-12-15T12:39:46.274Z,1018.95
2018-12-15T12:40:47.991Z,1018.92
2018-12-15T12:41:48.643Z,1018.98
2018-12-15T12:42:49.294Z,1018.93
2018-12-15T12:43:49.968Z,1018.96
2018-12-15T12:44:50.618Z,1018.96
2018-12-15T12:45:51.317Z,1018.97
2018-12-15T12:46:51.997Z,1018.92
2018-12-15T12:47:52.639Z,1018.94
2018-12-15T12:48:53.278Z,1018.90
2018-12-15T12:49:56.929Z,1018.83
2018-12-15T12:50:55.663Z,1018.89
2018-12-15T12:51:57.433Z,1018.85
2018-12-15T12:52:58.092Z,1018.81
2018-12-15T12:54:19.832Z,1018.80
2018-12-15T12:55:20.466Z,1018.82
2018-12-15T12:56:27.910Z,1018.81
2018-12-15T12:57:28.553Z,1018.77
2018-12-15T12:58:29.249Z,1018.77
2018-12-15T12:59:29.884Z,1018.76
2018-12-15T13:00:45.451Z,1018.74
2018-12-15T13:01:46.097Z,1018.77
2018-12-15T13:03:58.059Z,1018.74
2018-12-15T13:05:06.453Z,1018.73
2018-12-15T13:06:07.115Z,1018.74
2018-12-15T13:07:09.854Z,1018.75
2018-12-15T13:08:10.489Z,1018.74
2018-12-15T13:09:12.217Z,1018.72
2018-12-15T13:10:12.860Z,1018.76
2018-12-15T13:11:20.434Z,1018.73
2018-12-15T13:12:21.067Z,1018.75
2018-12-15T13:13:22.820Z,1018.77
2018-12-15T13:14:23.463Z,1018.77
2018-12-15T13:15:24.163Z,1018.76
2018-12-15T13:16:24.794Z,1018.74
2018-12-15T13:17:25.480Z,1018.73
2018-12-15T13:18:26.125Z,1018.71
2018-12-15T13:19:28.905Z,1018.69
2018-12-15T13:20:29.533Z,1018.70
2018-12-15T13:21:32.224Z,1018.70
2018-12-15T13:22:32.900Z,1018.70
2018-12-15T13:23:34.589Z,1018.73
2018-12-15T13:24:35.270Z,1018.69
2018-12-15T13:25:35.937Z,1018.70
2018-12-15T13:26:36.582Z,1018.70
2018-12-15T13:27:37.231Z,1018.70
2018-12-15T13:28:37.890Z,1018.72
2018-12-15T13:29:38.538Z,1018.73
2018-12-15T13:30:39.243Z,1018.77
2018-12-15T13:31:39.886Z,1018.68
2018-12-15T13:32:40.625Z,1018.69
2018-12-15T13:33:41.260Z,1018.68
2018-12-15T13:34:41.953Z,1018.63
2018-12-15T13:35:42.610Z,1018.64
2018-12-15T13:36:43.275Z,1018.62
2018-12-15T13:37:43.919Z,1018.64
2018-12-15T13:38:44.577Z,1018.54
2018-12-15T13:39:45.212Z,1018.58
2018-12-15T13:40:45.965Z,1018.60
2018-12-15T13:41:46.616Z,1018.51
2018-12-15T13:42:47.303Z,1018.50
2018-12-15T13:43:47.980Z,1018.50
2018-12-15T13:44:48.660Z,1018.48
2018-12-15T13:45:49.277Z,1018.51
2018-12-15T13:46:56.893Z,1018.44
2018-12-15T13:47:57.553Z,1018.46
2018-12-15T13:48:58.327Z,1018.45
2018-12-15T13:49:58.964Z,1018.45
2018-12-15T13:50:59.654Z,1018.38
2018-12-15T13:52:00.309Z,1018.41
2018-12-15T13:53:01.018Z,1018.40
2018-12-15T13:54:01.647Z,1018.38
2018-12-15T13:55:02.372Z,1018.40
2018-12-15T13:56:03.011Z,1018.34
2018-12-15T13:57:04.720Z,1018.42
2018-12-15T13:58:05.448Z,1018.36
2018-12-15T13:59:06.065Z,1018.34
2018-12-15T14:00:06.712Z,1018.32
2018-12-15T14:01:16.409Z,1018.35
2018-12-15T14:02:17.052Z,1018.32
2018-12-15T14:03:25.439Z,1018.30
2018-12-15T14:04:26.098Z,1018.29
2018-12-15T14:06:03.433Z,1018.29
2018-12-15T14:07:04.093Z,1018.32
2018-12-15T14:08:11.447Z,1018.26
2018-12-15T14:09:12.081Z,1018.25
2018-12-15T14:10:13.835Z,1018.27
2018-12-15T14:11:14.516Z,1018.22
2018-12-15T14:12:17.201Z,1018.21
2018-12-15T14:13:17.850Z,1018.20
2018-12-15T14:14:34.423Z,1018.16
2018-12-15T14:15:35.080Z,1018.13
2018-12-15T14:16:35.767Z,1018.15
2018-12-15T14:17:36.477Z,1018.10
2018-12-15T14:18:44.885Z,1018.13
2018-12-15T14:19:45.557Z,1018.13
2018-12-15T14:20:46.234Z,1018.10
2018-12-15T14:21:46.876Z,1018.08
2018-12-15T14:22:48.629Z,1018.08
2018-12-15T14:23:49.241Z,1018.12
2018-12-15T14:25:10.924Z,1018.08
2018-12-15T14:26:11.636Z,1018.12
2018-12-15T14:27:12.298Z,1018.06
2018-12-15T14:28:12.956Z,1018.09
2018-12-15T14:29:21.421Z,1018.04
2018-12-15T14:30:22.115Z,1018.05
2018-12-15T14:42:33.969Z,1017.96
2018-12-15T14:43:34.654Z,1017.89
2018-12-15T14:44:35.378Z,1017.94
2018-12-15T14:45:36.038Z,1017.88
2018-12-15T14:46:37.706Z,1017.83
2018-12-15T14:47:38.349Z,1017.85
2018-12-15T14:48:40.097Z,1017.85
2018-12-15T14:49:40.745Z,1017.77
2018-12-15T14:50:50.054Z,1017.76
2018-12-15T14:51:50.700Z,1017.74
2018-12-15T14:53:07.107Z,1017.74
2018-12-15T14:54:07.704Z,1017.73
2018-12-15T14:55:30.438Z,1017.74
2018-12-15T14:56:31.063Z,1017.72
2018-12-15T14:57:31.756Z,1017.70
2018-12-15T14:58:32.406Z,1017.70
2018-12-15T14:59:34.125Z,1017.67
2018-12-15T15:00:34.789Z,1017.62
2018-12-15T15:02:04.043Z,1017.57
2018-12-15T15:03:04.691Z,1017.57
2018-12-15T15:04:12.061Z,1017.51
2018-12-15T15:05:12.696Z,1017.49
2018-12-15T15:06:34.383Z,1017.50
2018-12-15T15:07:35.003Z,1017.48
2018-12-15T15:08:51.496Z,1017.44
2018-12-15T15:09:52.143Z,1017.38
2018-12-15T15:10:59.495Z,1017.39
2018-12-15T15:12:00.156Z,1017.35
2018-12-15T15:13:00.841Z,1017.36
2018-12-15T15:14:01.498Z,1017.32
2018-12-15T15:15:40.099Z,1017.36
2018-12-15T15:16:40.721Z,1017.28
2018-12-15T15:17:41.623Z,1017.25
2018-12-15T15:18:42.270Z,1017.29
2018-12-15T15:20:08.581Z,1017.24
2018-12-15T15:21:09.237Z,1017.24
2018-12-15T15:22:25.592Z,1017.26
2018-12-15T15:23:26.132Z,1017.17
2018-12-15T15:24:28.877Z,1017.22
2018-12-15T15:25:29.519Z,1017.20
2018-12-15T15:26:37.967Z,1017.18
2018-12-15T15:27:38.601Z,1017.18
2018-12-15T15:29:00.910Z,1017.16
2018-12-15T15:30:01.555Z,1017.13
2018-12-15T15:31:19.017Z,1017.13
2018-12-15T15:32:19.636Z,1016.98
2018-12-15T15:33:20.289Z,1017.02
2018-12-15T15:34:20.952Z,1017.07
2018-12-15T15:35:21.612Z,1017.02
2018-12-15T15:36:31.112Z,1017.00
2018-12-15T15:37:31.640Z,1016.93
2018-12-15T15:38:34.393Z,1017.01
2018-12-15T15:39:35.067Z,1016.97
2018-12-15T15:40:37.702Z,1016.99
2018-12-15T15:41:38.344Z,1016.92
2018-12-15T15:42:39.042Z,1016.89
2018-12-15T15:43:39.684Z,1016.90
2018-12-15T15:44:41.398Z,1016.90
2018-12-15T15:45:42.072Z,1016.87
2018-12-15T15:46:49.504Z,1016.88
2018-12-15T15:47:50.146Z,1016.85
2018-12-15T15:48:59.550Z,1016.82
2018-12-15T15:50:00.208Z,1016.84
2018-12-15T15:51:08.578Z,1016.79
2018-12-15T15:52:09.239Z,1016.77
2018-12-15T15:53:09.921Z,1016.71
2018-12-15T15:54:10.582Z,1016.74
2018-12-15T15:55:20.114Z,1016.73
2018-12-15T15:56:20.651Z,1016.78
2018-12-15T15:57:38.019Z,1016.76
2018-12-15T15:58:38.663Z,1016.72
2018-12-15T15:59:40.387Z,1016.73
2018-12-15T16:00:41.031Z,1016.70
2018-12-15T16:01:43.800Z,1016.71
2018-12-15T16:02:44.620Z,1016.72
2018-12-15T16:03:46.350Z,1016.66
2018-12-15T16:04:47.002Z,1016.66
2018-12-15T16:05:55.473Z,1016.65
2018-12-15T16:06:56.120Z,1016.59
2018-12-15T16:07:56.826Z,1016.57
2018-12-15T16:08:57.472Z,1016.62
2018-12-15T16:10:00.217Z,1016.63
2018-12-15T16:11:00.881Z,1016.65
2018-12-15T16:12:08.559Z,1016.47
2018-12-15T16:13:09.172Z,1016.57
2018-12-15T16:14:10.894Z,1016.54
2018-12-15T16:15:11.536Z,1016.57
2018-12-15T16:16:12.262Z,1016.57
2018-12-15T16:17:12.870Z,1016.52
2018-12-15T16:18:13.574Z,1016.56
2018-12-15T16:19:14.254Z,1016.47
2018-12-15T16:20:23.530Z,1016.46
2018-12-15T16:21:24.264Z,1016.43
2018-12-15T16:22:32.582Z,1016.54
2018-12-15T16:23:33.253Z,1016.49
2018-12-15T16:24:42.523Z,1016.45
2018-12-15T16:25:43.151Z,1016.47
2018-12-15T16:28:04.148Z,1016.36
2018-12-15T16:29:19.508Z,1016.29
2018-12-15T16:30:20.148Z,1016.26
2018-12-15T16:31:22.886Z,1016.27
2018-12-15T16:32:23.538Z,1016.28
2018-12-15T16:33:26.283Z,1016.25
2018-12-15T16:34:26.936Z,1016.21
2018-12-15T16:35:29.704Z,1016.23
2018-12-15T16:36:30.361Z,1016.19
2018-12-15T16:37:33.072Z,1016.19
2018-12-15T16:38:33.732Z,1016.16
2018-12-15T16:41:02.398Z,1016.14
2018-12-15T16:42:03.106Z,1016.17
2018-12-15T16:43:03.747Z,1016.17
2018-12-15T16:44:12.030Z,1016.13
2018-12-15T16:45:12.667Z,1016.10
2018-12-15T16:47:25.754Z,1016.02
2018-12-15T16:48:27.417Z,1016.01
2018-12-15T16:49:28.067Z,1015.97
2018-12-15T16:50:30.800Z,1015.94
2018-12-15T16:51:31.454Z,1015.96
2018-12-15T16:52:32.149Z,1015.87
2018-12-15T16:53:32.799Z,1015.87
2018-12-15T16:54:34.513Z,1015.83
2018-12-15T16:55:35.171Z,1015.78
2018-12-15T16:56:37.842Z,1015.80
2018-12-15T16:57:38.461Z,1015.72
2018-12-15T16:58:41.208Z,1015.71
2018-12-15T16:59:41.850Z,1015.71
2018-12-15T17:00:51.557Z,1015.71
2018-12-15T17:01:52.209Z,1015.71
2018-12-15T17:03:00.519Z,1015.74
2018-12-15T17:04:01.143Z,1015.69
2018-12-15T17:05:25.494Z,1015.74
2018-12-15T17:06:26.128Z,1015.65
2018-12-15T17:07:26.878Z,1015.73
2018-12-15T17:08:27.549Z,1015.69
2018-12-15T17:09:37.030Z,1015.69
2018-12-15T17:10:37.675Z,1015.67
2018-12-15T17:11:39.407Z,1015.68
2018-12-15T17:12:40.063Z,1015.64
2018-12-15T17:13:40.781Z,1015.64
2018-12-15T17:14:41.608Z,1015.61
2018-12-15T17:15:42.253Z,1015.59
2018-12-15T17:16:42.892Z,1015.56
2018-12-15T17:17:43.571Z,1015.57
2018-12-15T17:18:44.227Z,1015.56
2018-12-15T17:19:44.926Z,1015.54
2018-12-15T17:20:45.562Z,1015.51
2018-12-15T17:21:46.230Z,1015.54
2018-12-15T17:22:47.907Z,1015.52
2018-12-15T17:23:48.564Z,1015.53
2018-12-15T17:24:49.260Z,1015.49
2018-12-15T17:25:49.897Z,1015.47
2018-12-15T17:26:50.551Z,1015.45
2018-12-15T17:27:51.356Z,1015.36
2018-12-15T17:28:51.911Z,1015.35
2018-12-15T17:29:52.569Z,1015.33
2018-12-15T17:30:53.740Z,1015.31
2018-12-15T17:31:55.470Z,1015.30
2018-12-15T17:32:56.094Z,1015.30
2018-12-15T17:33:56.796Z,1015.32
2018-12-15T17:34:57.440Z,1015.32
2018-12-15T17:35:58.117Z,1015.32
2018-12-15T17:36:58.752Z,1015.42
2018-12-15T17:38:00.508Z,1015.42
2018-12-15T17:39:01.160Z,1015.42
2018-12-15T17:40:02.900Z,1015.39
2018-12-15T17:41:03.516Z,1015.35
2018-12-15T17:42:05.196Z,1015.33
2018-12-15T17:43:05.844Z,1015.31
2018-12-15T17:44:06.492Z,1015.28
2018-12-15T17:45:28.161Z,1015.24
2018-12-15T17:46:28.785Z,1015.24
2018-12-15T17:47:30.516Z,1015.19
2018-12-15T17:48:31.162Z,1015.20
2018-12-15T17:49:39.562Z,1015.18
2018-12-15T17:50:40.195Z,1015.15
2018-12-15T17:52:01.895Z,1015.18
2018-12-15T17:53:02.547Z,1015.14
2018-12-15T17:54:03.223Z,1015.10
2018-12-15T17:55:03.871Z,1015.09
2018-12-15T17:56:05.647Z,1015.07
2018-12-15T17:57:06.241Z,1015.04
2018-12-15T17:58:23.559Z,1014.98
2018-12-15T17:59:24.179Z,1014.95
2018-12-15T18:00:31.535Z,1014.96
2018-12-15T18:01:32.167Z,1014.93
2018-12-15T18:02:39.515Z,1014.95
2018-12-15T18:03:40.125Z,1014.91
2018-12-15T18:04:42.895Z,1014.89
2018-12-15T18:05:43.562Z,1014.84
2018-12-15T18:06:44.213Z,1014.76
2018-12-15T18:07:44.878Z,1014.77
2018-12-15T18:23:38.715Z,1014.59
2018-12-15T18:25:03.415Z,1014.60
2018-12-15T18:26:04.037Z,1014.61
2018-12-15T18:27:04.688Z,1014.55
2018-12-15T18:28:28.394Z,1014.59
2018-12-15T18:29:29.044Z,1014.53
2018-12-15T18:31:05.298Z,1014.53
2018-12-15T18:32:05.927Z,1014.53
2018-12-15T18:33:06.705Z,1014.55
2018-12-15T18:34:28.340Z,1014.49
2018-12-15T18:35:29.030Z,1014.49
2018-12-15T18:36:30.717Z,1014.42
2018-12-15T18:37:31.352Z,1014.45
2018-12-15T20:26:33.185Z,1012.78
2018-12-15T20:27:33.819Z,1012.77
2018-12-15T20:28:35.665Z,1012.72
2018-12-15T20:29:36.314Z,1012.70
2018-12-15T20:30:37.304Z,1012.70
2018-12-15T20:31:37.929Z,1012.65
2018-12-15T20:32:38.584Z,1012.61
2018-12-15T20:33:39.219Z,1012.64
2018-12-15T20:34:39.979Z,1012.59
2018-12-15T20:35:40.617Z,1012.61
2018-12-15T20:37:09.174Z,1012.61
2018-12-15T20:38:09.825Z,1012.58
2018-12-15T20:39:11.654Z,1012.57
2018-12-15T20:40:12.289Z,1012.58
2018-12-15T20:41:12.939Z,1012.49
2018-12-15T20:42:13.595Z,1012.54
2018-12-15T20:43:14.331Z,1012.53
2018-12-15T20:44:14.975Z,1012.53
2018-12-15T20:45:15.779Z,1012.48
2018-12-15T20:46:16.431Z,1012.47
2018-12-15T20:47:17.122Z,1012.51
2018-12-15T20:48:17.684Z,1012.51
2018-12-15T20:49:18.366Z,1012.45
2018-12-15T20:50:19.000Z,1012.46
2018-12-15T20:51:20.741Z,1012.41
2018-12-15T20:52:21.389Z,1012.43
2018-12-15T20:53:30.716Z,1012.39
2018-12-15T20:54:31.331Z,1012.37
2018-12-15T20:55:38.690Z,1012.37
2018-12-15T20:56:39.333Z,1012.35
2018-12-15T20:57:48.735Z,1012.37
2018-12-15T20:58:49.375Z,1012.30
2018-12-15T20:59:50.092Z,1012.28
2018-12-15T21:00:50.727Z,1012.32
2018-12-15T21:02:00.257Z,1012.25
2018-12-15T21:03:00.898Z,1012.28
2018-12-15T21:04:03.644Z,1012.25
2018-12-15T21:05:04.268Z,1012.22
2018-12-15T21:06:19.772Z,1012.19
2018-12-15T21:07:20.385Z,1012.16
2018-12-15T21:08:21.157Z,1012.12
2018-12-15T21:09:21.831Z,1012.12
2018-12-15T21:10:23.629Z,1012.10
2018-12-15T21:11:24.386Z,1012.06
2018-12-15T21:12:26.117Z,1012.01
2018-12-15T21:13:26.741Z,1012.00
2018-12-15T21:14:29.563Z,1011.99
2018-12-15T21:15:30.192Z,1011.99
2018-12-15T21:16:31.000Z,1011.94
2018-12-15T21:17:31.639Z,1011.92
2018-12-15T21:18:32.458Z,1011.93
2018-12-15T21:19:33.091Z,1011.87
2018-12-15T21:20:33.869Z,1011.86
2018-12-15T21:21:34.567Z,1011.89
2018-12-15T21:22:36.353Z,1011.80
2018-12-15T21:23:37.042Z,1011.84
2018-12-15T21:24:38.717Z,1011.74
2018-12-15T21:25:39.345Z,1011.76
2018-12-15T21:26:40.036Z,1011.79
2018-12-15T21:27:40.696Z,1011.71
2018-12-15T21:28:41.383Z,1011.68
2018-12-15T21:29:42.026Z,1011.66
2018-12-15T21:30:43.759Z,1011.63
2018-12-15T21:31:44.434Z,1011.65
2018-12-15T21:32:45.131Z,1011.60
2018-12-15T21:33:45.769Z,1011.58
2018-12-15T21:34:46.497Z,1011.54
2018-12-15T21:36:22.691Z,1011.55
2018-12-15T21:37:23.341Z,1011.54
2018-12-15T21:38:24.029Z,1011.50
2018-12-15T21:39:24.666Z,1011.49
2018-12-15T21:40:25.410Z,1011.40
2018-12-15T21:41:26.010Z,1011.45
2018-12-15T21:42:26.720Z,1011.44
2018-12-15T21:43:27.371Z,1011.43
2018-12-15T21:44:28.031Z,1011.31
2018-12-15T21:45:28.728Z,1011.33
2018-12-15T21:46:29.316Z,1011.35
2018-12-15T21:47:30.020Z,1011.33
2018-12-15T21:48:30.935Z,1011.30
2018-12-15T21:49:31.321Z,1011.27
2018-12-15T21:50:32.234Z,1011.23
2018-12-15T21:51:33.934Z,1011.29
2018-12-15T21:52:34.592Z,1011.24
2018-12-15T21:53:35.280Z,1011.23
2018-12-15T21:54:35.917Z,1011.26
2018-12-15T21:55:36.628Z,1011.25
2018-12-15T21:56:37.268Z,1011.26
2018-12-15T21:57:37.911Z,1011.20
2018-12-15T21:58:38.569Z,1011.20
2018-12-15T21:59:39.318Z,1011.21
2018-12-15T22:00:39.941Z,1011.22
2018-12-15T22:01:40.598Z,1011.21
2018-12-15T22:02:41.269Z,1011.15
2018-12-15T22:03:41.927Z,1011.13
2018-12-15T22:04:42.649Z,1011.09
2018-12-15T22:05:43.301Z,1011.08
2018-12-15T22:06:46.010Z,1011.05
2018-12-15T22:07:47.129Z,1011.00
2018-12-15T22:08:47.892Z,1011.00
2018-12-15T22:09:48.528Z,1010.89
2018-12-15T22:10:49.240Z,1010.88
2018-12-15T22:11:49.858Z,1010.87
2018-12-15T22:12:50.554Z,1010.83
2018-12-15T22:13:51.207Z,1010.86
2018-12-15T22:14:51.898Z,1010.84
2018-12-15T22:15:52.579Z,1010.82
2018-12-15T22:16:53.256Z,1010.84
2018-12-15T22:17:54.990Z,1010.83
2018-12-15T22:18:55.659Z,1010.79
2018-12-15T22:19:56.335Z,1010.83
2018-12-15T22:20:57.000Z,1010.81
2018-12-15T22:22:02.949Z,1010.67
2018-12-15T22:22:58.346Z,1010.65
2018-12-15T22:23:58.997Z,1010.58
2018-12-15T22:25:00.675Z,1010.55
2018-12-15T22:26:01.331Z,1010.47
2018-12-15T22:27:01.995Z,1010.49
2018-12-15T22:28:02.750Z,1010.48
2018-12-15T22:29:03.372Z,1010.44
2018-12-15T22:30:04.395Z,1010.47
2018-12-15T22:31:05.108Z,1010.36
2018-12-15T22:32:05.769Z,1010.38
2018-12-15T22:33:06.465Z,1010.30
2018-12-15T22:34:07.128Z,1010.30
2018-12-15T22:35:07.803Z,1010.26
2018-12-15T22:36:08.450Z,1010.26
2018-12-15T22:37:09.146Z,1010.25
2018-12-15T22:38:09.798Z,1010.21
2018-12-15T22:39:10.447Z,1010.17
2018-12-15T22:40:13.014Z,1010.14
2018-12-15T22:41:12.769Z,1010.11
2018-12-15T22:42:13.496Z,1010.09
2018-12-15T22:43:14.138Z,1010.16
2018-12-15T22:44:14.855Z,1010.11
2018-12-15T22:45:15.476Z,1010.12
2018-12-15T22:46:16.127Z,1010.09
2018-12-15T22:47:17.836Z,1010.02
2018-12-15T22:48:18.504Z,1010.00
2018-12-15T22:49:19.141Z,1010.00
2018-12-15T22:50:19.784Z,1010.00
2018-12-15T22:51:20.451Z,1009.90
2018-12-15T22:52:21.090Z,1009.90
2018-12-15T22:53:21.745Z,1009.86
2018-12-15T22:54:22.398Z,1009.85
2018-12-15T22:55:23.076Z,1009.80
2018-12-15T22:56:23.718Z,1009.84
2018-12-15T22:57:24.409Z,1009.83
2018-12-15T22:58:25.063Z,1009.88
2018-12-15T22:59:26.812Z,1009.93
2018-12-15T23:00:27.474Z,1009.97
2018-12-15T23:01:28.142Z,1009.91
2018-12-15T23:02:28.790Z,1009.88
2018-12-15T23:03:29.433Z,1009.83
2018-12-15T23:04:30.249Z,1009.80
2018-12-15T23:05:30.868Z,1009.74
2018-12-15T23:06:31.554Z,1009.76
2018-12-15T23:07:32.197Z,1009.67
2018-12-15T23:08:32.841Z,1009.64
2018-12-15T23:09:33.497Z,1009.60
2018-12-15T23:10:34.338Z,1009.58
2018-12-15T23:11:35.002Z,1009.60
2018-12-15T23:12:35.642Z,1009.58
2018-12-15T23:13:36.299Z,1009.62
2018-12-15T23:14:37.115Z,1009.55
2018-12-15T23:15:37.759Z,1009.53
2018-12-15T23:16:38.463Z,1009.47
2018-12-15T23:17:39.110Z,1009.47
2018-12-15T23:18:40.221Z,1009.43
2018-12-15T23:19:40.856Z,1009.40
2018-12-15T23:20:41.971Z,1009.36
2018-12-15T23:21:42.615Z,1009.36
2018-12-15T23:22:44.513Z,1009.34
2018-12-15T23:23:45.312Z,1009.28
2018-12-15T23:24:46.276Z,1009.27
2018-12-15T23:25:46.921Z,1009.27
2018-12-15T23:26:47.844Z,1009.21
2018-12-15T23:27:48.381Z,1009.27
2018-12-15T23:28:50.223Z,1009.30
2018-12-15T23:29:50.877Z,1009.33
2018-12-15T23:30:51.550Z,1009.29
2018-12-15T23:31:52.189Z,1009.32
2018-12-15T23:32:52.896Z,1009.31
2018-12-15T23:33:53.562Z,1009.30
2018-12-15T23:34:54.268Z,1009.30
2018-12-15T23:35:54.933Z,1009.32
2018-12-15T23:36:55.581Z,1009.27
2018-12-15T23:37:56.298Z,1009.22
2018-12-15T23:38:56.919Z,1009.20
2018-12-15T23:39:57.629Z,1009.11
2018-12-15T23:40:58.387Z,1009.19
2018-12-15T23:41:59.015Z,1009.20
2018-12-15T23:42:59.714Z,1009.16
2018-12-15T23:44:00.362Z,1009.15
2018-12-15T23:45:01.080Z,1009.11
2018-12-15T23:46:01.703Z,1009.06
2018-12-15T23:47:02.419Z,1009.08
2018-12-15T23:48:03.058Z,1009.12
2018-12-15T23:49:03.762Z,1009.15
2018-12-15T23:50:04.406Z,1009.15
2018-12-15T23:51:05.100Z,1009.18
2018-12-15T23:52:05.911Z,1009.19
2018-12-15T23:53:06.644Z,1009.23
2018-12-15T23:54:07.315Z,1009.21
2018-12-15T23:55:07.989Z,1009.21
2018-12-15T23:56:08.641Z,1009.14
2018-12-15T23:57:09.343Z,1009.16
2018-12-15T23:58:09.975Z,1009.11
2018-12-15T23:59:10.683Z,1009.08
